sensor_id;sensor_type;location;lat;lon;timestamp;P1;durP1;ratioP1;P2;durP2;ratioP2
75512;SDS011;64090;49.770;18.760;2023-06-14T00:00:37;4.90;;;3.50;;
75512;SDS011;64090;49.770;18.760;2023-06-14T00:04:19;4.30;;;2.70;;
75512;SDS011;64090;49.770;18.760;2023-06-14T00:07:33;4.60;;;3.20;;
75512;SDS011;64090;49.770;18.760;2023-06-14T00:10:39;3.60;;;2.70;;
75512;SDS011;64090;49.770;18.760;2023-06-14T00:13:50;5.80;;;3.40;;
75512;SDS011;64090;49.770;18.760;2023-06-14T00:16:52;3.40;;;3.10;;
75512;SDS011;64090;49.770;18.760;2023-06-14T00:20:17;4.90;;;3.60;;
75512;SDS011;64090;49.770;18.760;2023-06-14T00:23:25;5.00;;;2.90;;
75512;SDS011;64090;49.770;18.760;2023-06-14T00:26:47;3.60;;;2.80;;
75512;SDS011;64090;49.770;18.760;2023-06-14T00:29:51;4.20;;;3.40;;
75512;SDS011;64090;49.770;18.760;2023-06-14T00:32:56;4.10;;;3.70;;
75512;SDS011;64090;49.770;18.760;2023-06-14T00:36:01;4.00;;;2.60;;
75512;SDS011;64090;49.770;18.760;2023-06-14T00:39:23;6.90;;;2.90;;
75512;SDS011;64090;49.770;18.760;2023-06-14T00:42:27;5.50;;;2.70;;
75512;SDS011;64090;49.770;18.760;2023-06-14T00:45:44;3.80;;;3.00;;
75512;SDS011;64090;49.770;18.760;2023-06-14T00:48:52;3.40;;;2.60;;
75512;SDS011;64090;49.770;18.760;2023-06-14T00:52:00;5.20;;;3.80;;
75512;SDS011;64090;49.770;18.760;2023-06-14T00:55:04;3.60;;;2.50;;
75512;SDS011;64090;49.770;18.760;2023-06-14T00:58:13;3.80;;;1.90;;
75512;SDS011;64090;49.770;18.760;2023-06-14T01:01:23;3.40;;;2.20;;
75512;SDS011;64090;49.770;18.760;2023-06-14T01:04:39;3.30;;;2.00;;
75512;SDS011;64090;49.770;18.760;2023-06-14T01:11:10;5.00;;;2.50;;
75512;SDS011;64090;49.770;18.760;2023-06-14T01:14:18;4.10;;;3.00;;
75512;SDS011;64090;49.770;18.760;2023-06-14T01:17:29;3.30;;;2.40;;
75512;SDS011;64090;49.770;18.760;2023-06-14T01:20:34;3.40;;;2.30;;
75512;SDS011;64090;49.770;18.760;2023-06-14T01:23:58;3.40;;;2.60;;
75512;SDS011;64090;49.770;18.760;2023-06-14T01:27:04;3.50;;;2.60;;
75512;SDS011;64090;49.770;18.760;2023-06-14T01:30:32;3.70;;;2.30;;
75512;SDS011;64090;49.770;18.760;2023-06-14T01:33:57;4.30;;;2.60;;
75512;SDS011;64090;49.770;18.760;2023-06-14T01:37:07;3.40;;;2.30;;
75512;SDS011;64090;49.770;18.760;2023-06-14T01:40:37;2.80;;;1.90;;
75512;SDS011;64090;49.770;18.760;2023-06-14T01:43:47;3.40;;;2.10;;
75512;SDS011;64090;49.770;18.760;2023-06-14T01:47:06;3.80;;;3.30;;
75512;SDS011;64090;49.770;18.760;2023-06-14T01:50:19;3.40;;;2.40;;
75512;SDS011;64090;49.770;18.760;2023-06-14T01:53:26;4.30;;;2.00;;
75512;SDS011;64090;49.770;18.760;2023-06-14T01:56:36;4.40;;;2.50;;
75512;SDS011;64090;49.770;18.760;2023-06-14T01:59:38;3.70;;;3.00;;
75512;SDS011;64090;49.770;18.760;2023-06-14T02:02:43;3.40;;;2.60;;
75512;SDS011;64090;49.770;18.760;2023-06-14T02:05:51;4.10;;;2.80;;
75512;SDS011;64090;49.770;18.760;2023-06-14T02:08:57;3.50;;;2.30;;
75512;SDS011;64090;49.770;18.760;2023-06-14T02:12:02;3.80;;;3.10;;
75512;SDS011;64090;49.770;18.760;2023-06-14T02:15:07;4.70;;;2.80;;
75512;SDS011;64090;49.770;18.760;2023-06-14T02:18:23;5.30;;;3.80;;
75512;SDS011;64090;49.770;18.760;2023-06-14T02:21:41;6.00;;;4.00;;
75512;SDS011;64090;49.770;18.760;2023-06-14T02:25:04;7.40;;;4.20;;
75512;SDS011;64090;49.770;18.760;2023-06-14T02:28:11;7.40;;;5.10;;
75512;SDS011;64090;49.770;18.760;2023-06-14T02:31:21;7.60;;;5.50;;
75512;SDS011;64090;49.770;18.760;2023-06-14T02:34:26;7.60;;;5.00;;
75512;SDS011;64090;49.770;18.760;2023-06-14T02:37:30;8.80;;;5.60;;
75512;SDS011;64090;49.770;18.760;2023-06-14T02:40:35;7.80;;;5.20;;
75512;SDS011;64090;49.770;18.760;2023-06-14T02:50:14;9.00;;;5.30;;
75512;SDS011;64090;49.770;18.760;2023-06-14T02:53:18;8.70;;;5.30;;
75512;SDS011;64090;49.770;18.760;2023-06-14T02:56:22;9.30;;;4.90;;
75512;SDS011;64090;49.770;18.760;2023-06-14T02:59:26;6.50;;;4.00;;
75512;SDS011;64090;49.770;18.760;2023-06-14T03:02:45;7.80;;;5.10;;
75512;SDS011;64090;49.770;18.760;2023-06-14T03:06:06;16.50;;;9.90;;
75512;SDS011;64090;49.770;18.760;2023-06-14T03:09:25;16.50;;;10.10;;
75512;SDS011;64090;49.770;18.760;2023-06-14T03:12:30;13.20;;;7.20;;
75512;SDS011;64090;49.770;18.760;2023-06-14T03:15:44;13.20;;;7.70;;
75512;SDS011;64090;49.770;18.760;2023-06-14T03:19:13;10.90;;;6.90;;
75512;SDS011;64090;49.770;18.760;2023-06-14T03:22:35;9.10;;;4.60;;
75512;SDS011;64090;49.770;18.760;2023-06-14T03:25:59;10.00;;;4.80;;
75512;SDS011;64090;49.770;18.760;2023-06-14T03:29:52;10.00;;;5.20;;
75512;SDS011;64090;49.770;18.760;2023-06-14T03:33:14;10.40;;;5.70;;
75512;SDS011;64090;49.770;18.760;2023-06-14T03:36:41;10.10;;;6.10;;
75512;SDS011;64090;49.770;18.760;2023-06-14T03:40:06;9.90;;;5.70;;
75512;SDS011;64090;49.770;18.760;2023-06-14T03:43:40;10.00;;;5.80;;
75512;SDS011;64090;49.770;18.760;2023-06-14T03:46:54;9.60;;;7.10;;
75512;SDS011;64090;49.770;18.760;2023-06-14T03:50:19;10.10;;;5.40;;
75512;SDS011;64090;49.770;18.760;2023-06-14T03:53:41;10.30;;;5.70;;
75512;SDS011;64090;49.770;18.760;2023-06-14T03:57:25;13.00;;;6.20;;
75512;SDS011;64090;49.770;18.760;2023-06-14T04:01:03;12.30;;;6.80;;
75512;SDS011;64090;49.770;18.760;2023-06-14T04:04:29;12.70;;;7.80;;
75512;SDS011;64090;49.770;18.760;2023-06-14T04:07:49;12.00;;;8.10;;
75512;SDS011;64090;49.770;18.760;2023-06-14T04:11:10;14.40;;;9.60;;
75512;SDS011;64090;49.770;18.760;2023-06-14T04:14:40;12.60;;;6.50;;
75512;SDS011;64090;49.770;18.760;2023-06-14T04:18:21;11.90;;;6.40;;
75512;SDS011;64090;49.770;18.760;2023-06-14T04:21:44;11.40;;;6.50;;
75512;SDS011;64090;49.770;18.760;2023-06-14T04:25:09;12.70;;;6.70;;
75512;SDS011;64090;49.770;18.760;2023-06-14T04:28:30;8.90;;;5.00;;
75512;SDS011;64090;49.770;18.760;2023-06-14T04:31:51;10.10;;;5.90;;
75512;SDS011;64090;49.770;18.760;2023-06-14T04:35:14;10.00;;;5.80;;
75512;SDS011;64090;49.770;18.760;2023-06-14T04:38:25;12.50;;;7.00;;
75512;SDS011;64090;49.770;18.760;2023-06-14T04:41:46;9.10;;;5.70;;
75512;SDS011;64090;49.770;18.760;2023-06-14T04:45:22;12.10;;;7.60;;
75512;SDS011;64090;49.770;18.760;2023-06-14T04:48:42;11.70;;;7.50;;
75512;SDS011;64090;49.770;18.760;2023-06-14T04:52:05;10.90;;;6.70;;
75512;SDS011;64090;49.770;18.760;2023-06-14T04:55:26;12.30;;;8.10;;
75512;SDS011;64090;49.770;18.760;2023-06-14T04:58:48;10.00;;;6.10;;
75512;SDS011;64090;49.770;18.760;2023-06-14T05:02:11;10.70;;;6.30;;
75512;SDS011;64090;49.770;18.760;2023-06-14T05:05:33;13.90;;;7.10;;
75512;SDS011;64090;49.770;18.760;2023-06-14T05:08:55;10.00;;;5.80;;
75512;SDS011;64090;49.770;18.760;2023-06-14T05:12:15;11.50;;;7.20;;
75512;SDS011;64090;49.770;18.760;2023-06-14T05:15:40;16.40;;;8.70;;
75512;SDS011;64090;49.770;18.760;2023-06-14T05:19:06;13.80;;;7.60;;
75512;SDS011;64090;49.770;18.760;2023-06-14T05:22:28;12.70;;;7.00;;
75512;SDS011;64090;49.770;18.760;2023-06-14T05:25:45;12.90;;;7.10;;
75512;SDS011;64090;49.770;18.760;2023-06-14T05:29:05;13.20;;;6.90;;
75512;SDS011;64090;49.770;18.760;2023-06-14T05:32:22;10.50;;;6.70;;
75512;SDS011;64090;49.770;18.760;2023-06-14T05:35:33;10.00;;;5.60;;
75512;SDS011;64090;49.770;18.760;2023-06-14T05:39:05;14.20;;;8.60;;
75512;SDS011;64090;49.770;18.760;2023-06-14T05:42:27;14.30;;;8.20;;
75512;SDS011;64090;49.770;18.760;2023-06-14T05:45:38;18.20;;;10.10;;
75512;SDS011;64090;49.770;18.760;2023-06-14T05:49:00;16.50;;;10.10;;
75512;SDS011;64090;49.770;18.760;2023-06-14T05:52:19;15.90;;;8.60;;
75512;SDS011;64090;49.770;18.760;2023-06-14T05:55:29;20.80;;;11.90;;
75512;SDS011;64090;49.770;18.760;2023-06-14T05:58:49;21.60;;;11.20;;
75512;SDS011;64090;49.770;18.760;2023-06-14T06:02:06;19.00;;;10.70;;
75512;SDS011;64090;49.770;18.760;2023-06-14T06:05:18;16.40;;;9.40;;
75512;SDS011;64090;49.770;18.760;2023-06-14T06:08:40;14.40;;;9.00;;
75512;SDS011;64090;49.770;18.760;2023-06-14T06:12:01;18.80;;;10.10;;
75512;SDS011;64090;49.770;18.760;2023-06-14T06:15:27;17.60;;;10.10;;
75512;SDS011;64090;49.770;18.760;2023-06-14T06:18:49;16.70;;;9.10;;
75512;SDS011;64090;49.770;18.760;2023-06-14T06:22:13;19.30;;;10.10;;
75512;SDS011;64090;49.770;18.760;2023-06-14T06:25:32;16.40;;;9.80;;
75512;SDS011;64090;49.770;18.760;2023-06-14T06:28:46;17.40;;;9.80;;
75512;SDS011;64090;49.770;18.760;2023-06-14T06:32:12;20.30;;;12.20;;
75512;SDS011;64090;49.770;18.760;2023-06-14T06:35:29;21.30;;;11.90;;
75512;SDS011;64090;49.770;18.760;2023-06-14T06:41:55;19.80;;;12.00;;
75512;SDS011;64090;49.770;18.760;2023-06-14T06:45:15;14.50;;;8.40;;
75512;SDS011;64090;49.770;18.760;2023-06-14T06:48:27;17.00;;;10.10;;
75512;SDS011;64090;49.770;18.760;2023-06-14T06:52:05;12.50;;;7.50;;
75512;SDS011;64090;49.770;18.760;2023-06-14T06:55:15;19.50;;;11.30;;
75512;SDS011;64090;49.770;18.760;2023-06-14T06:58:41;21.40;;;11.40;;
75512;SDS011;64090;49.770;18.760;2023-06-14T07:02:03;20.30;;;11.70;;
75512;SDS011;64090;49.770;18.760;2023-06-14T07:05:24;21.60;;;11.20;;
75512;SDS011;64090;49.770;18.760;2023-06-14T07:08:36;12.10;;;6.70;;
75512;SDS011;64090;49.770;18.760;2023-06-14T07:15:10;19.30;;;11.40;;
75512;SDS011;64090;49.770;18.760;2023-06-14T07:21:52;21.10;;;12.60;;
75512;SDS011;64090;49.770;18.760;2023-06-14T07:25:19;18.00;;;11.40;;
75512;SDS011;64090;49.770;18.760;2023-06-14T07:28:34;20.20;;;12.70;;
75512;SDS011;64090;49.770;18.760;2023-06-14T07:31:45;20.70;;;12.50;;
75512;SDS011;64090;49.770;18.760;2023-06-14T07:35:29;17.20;;;10.50;;
75512;SDS011;64090;49.770;18.760;2023-06-14T07:39:11;18.10;;;11.10;;
75512;SDS011;64090;49.770;18.760;2023-06-14T07:42:20;15.60;;;10.30;;
75512;SDS011;64090;49.770;18.760;2023-06-14T07:46:00;16.80;;;10.50;;
75512;SDS011;64090;49.770;18.760;2023-06-14T07:49:31;18.10;;;12.00;;
75512;SDS011;64090;49.770;18.760;2023-06-14T07:52:52;15.20;;;11.30;;
75512;SDS011;64090;49.770;18.760;2023-06-14T07:56:03;15.40;;;10.50;;
75512;SDS011;64090;49.770;18.760;2023-06-14T07:59:26;14.90;;;11.50;;
75512;SDS011;64090;49.770;18.760;2023-06-14T08:02:32;13.40;;;9.30;;
75512;SDS011;64090;49.770;18.760;2023-06-14T08:05:57;10.60;;;7.70;;
75512;SDS011;64090;49.770;18.760;2023-06-14T08:09:24;13.10;;;9.90;;
75512;SDS011;64090;49.770;18.760;2023-06-14T08:12:44;11.60;;;8.80;;
75512;SDS011;64090;49.770;18.760;2023-06-14T08:16:07;11.10;;;8.30;;
75512;SDS011;64090;49.770;18.760;2023-06-14T08:19:16;10.80;;;7.70;;
75512;SDS011;64090;49.770;18.760;2023-06-14T08:22:39;9.80;;;7.50;;
75512;SDS011;64090;49.770;18.760;2023-06-14T08:26:06;10.90;;;8.10;;
75512;SDS011;64090;49.770;18.760;2023-06-14T08:29:19;9.00;;;7.00;;
75512;SDS011;64090;49.770;18.760;2023-06-14T08:32:33;8.20;;;6.60;;
75512;SDS011;64090;49.770;18.760;2023-06-14T08:35:48;9.40;;;6.70;;
75512;SDS011;64090;49.770;18.760;2023-06-14T08:38:58;8.20;;;6.20;;
75512;SDS011;64090;49.770;18.760;2023-06-14T08:42:16;8.50;;;6.10;;
75512;SDS011;64090;49.770;18.760;2023-06-14T08:45:43;7.00;;;5.30;;
75512;SDS011;64090;49.770;18.760;2023-06-14T08:49:07;6.20;;;5.60;;
75512;SDS011;64090;49.770;18.760;2023-06-14T08:52:27;7.30;;;5.40;;
75512;SDS011;64090;49.770;18.760;2023-06-14T08:55:59;7.50;;;5.10;;
75512;SDS011;64090;49.770;18.760;2023-06-14T08:59:10;6.50;;;4.50;;
75512;SDS011;64090;49.770;18.760;2023-06-14T09:02:29;8.60;;;6.50;;
75512;SDS011;64090;49.770;18.760;2023-06-14T09:05:47;8.40;;;6.30;;
75512;SDS011;64090;49.770;18.760;2023-06-14T09:08:57;7.60;;;5.70;;
75512;SDS011;64090;49.770;18.760;2023-06-14T09:12:20;8.50;;;6.40;;
75512;SDS011;64090;49.770;18.760;2023-06-14T09:15:41;10.40;;;7.60;;
75512;SDS011;64090;49.770;18.760;2023-06-14T09:18:59;6.40;;;4.90;;
75512;SDS011;64090;49.770;18.760;2023-06-14T09:22:08;9.20;;;6.70;;
75512;SDS011;64090;49.770;18.760;2023-06-14T09:25:27;8.00;;;6.20;;
75512;SDS011;64090;49.770;18.760;2023-06-14T09:28:54;9.50;;;7.40;;
75512;SDS011;64090;49.770;18.760;2023-06-14T09:32:27;8.10;;;5.80;;
75512;SDS011;64090;49.770;18.760;2023-06-14T09:35:46;8.90;;;6.60;;
75512;SDS011;64090;49.770;18.760;2023-06-14T09:39:10;10.70;;;7.60;;
75512;SDS011;64090;49.770;18.760;2023-06-14T09:42:33;7.50;;;5.50;;
75512;SDS011;64090;49.770;18.760;2023-06-14T09:45:40;7.70;;;5.40;;
75512;SDS011;64090;49.770;18.760;2023-06-14T09:49:04;10.20;;;6.90;;
75512;SDS011;64090;49.770;18.760;2023-06-14T09:52:18;9.50;;;6.10;;
75512;SDS011;64090;49.770;18.760;2023-06-14T09:55:41;10.00;;;7.30;;
75512;SDS011;64090;49.770;18.760;2023-06-14T09:59:04;11.90;;;7.60;;
75512;SDS011;64090;49.770;18.760;2023-06-14T10:02:46;11.60;;;7.40;;
75512;SDS011;64090;49.770;18.760;2023-06-14T10:06:05;11.50;;;7.30;;
75512;SDS011;64090;49.770;18.760;2023-06-14T10:09:18;12.30;;;8.00;;
75512;SDS011;64090;49.770;18.760;2023-06-14T10:12:24;8.10;;;5.80;;
75512;SDS011;64090;49.770;18.760;2023-06-14T10:19:23;10.70;;;7.00;;
75512;SDS011;64090;49.770;18.760;2023-06-14T10:23:13;12.90;;;8.10;;
75512;SDS011;64090;49.770;18.760;2023-06-14T10:26:53;10.50;;;7.60;;
75512;SDS011;64090;49.770;18.760;2023-06-14T10:30:07;10.00;;;7.60;;
75512;SDS011;64090;49.770;18.760;2023-06-14T10:33:14;11.90;;;8.40;;
75512;SDS011;64090;49.770;18.760;2023-06-14T10:36:28;11.00;;;6.20;;
75512;SDS011;64090;49.770;18.760;2023-06-14T10:39:39;10.70;;;8.00;;
75512;SDS011;64090;49.770;18.760;2023-06-14T10:42:51;10.90;;;8.30;;
75512;SDS011;64090;49.770;18.760;2023-06-14T10:46:46;11.70;;;8.60;;
75512;SDS011;64090;49.770;18.760;2023-06-14T10:53:21;9.30;;;6.60;;
75512;SDS011;64090;49.770;18.760;2023-06-14T10:56:50;8.60;;;6.40;;
75512;SDS011;64090;49.770;18.760;2023-06-14T10:59:58;9.60;;;6.60;;
75512;SDS011;64090;49.770;18.760;2023-06-14T11:03:36;11.20;;;7.80;;
75512;SDS011;64090;49.770;18.760;2023-06-14T11:06:54;10.20;;;7.40;;
75512;SDS011;64090;49.770;18.760;2023-06-14T11:10:47;8.00;;;6.20;;
75512;SDS011;64090;49.770;18.760;2023-06-14T11:14:32;9.80;;;7.10;;
75512;SDS011;64090;49.770;18.760;2023-06-14T11:17:54;9.70;;;6.20;;
75512;SDS011;64090;49.770;18.760;2023-06-14T11:21:18;7.60;;;5.90;;
75512;SDS011;64090;49.770;18.760;2023-06-14T11:24:53;10.30;;;6.80;;
75512;SDS011;64090;49.770;18.760;2023-06-14T11:28:20;8.20;;;6.20;;
75512;SDS011;64090;49.770;18.760;2023-06-14T11:31:32;7.80;;;5.90;;
75512;SDS011;64090;49.770;18.760;2023-06-14T11:34:51;10.90;;;7.20;;
75512;SDS011;64090;49.770;18.760;2023-06-14T11:38:01;10.20;;;7.00;;
75512;SDS011;64090;49.770;18.760;2023-06-14T11:41:12;7.50;;;5.60;;
75512;SDS011;64090;49.770;18.760;2023-06-14T11:44:22;7.60;;;5.60;;
75512;SDS011;64090;49.770;18.760;2023-06-14T11:47:32;7.60;;;6.00;;
75512;SDS011;64090;49.770;18.760;2023-06-14T11:50:38;6.30;;;4.70;;
75512;SDS011;64090;49.770;18.760;2023-06-14T11:53:45;8.30;;;5.80;;
75512;SDS011;64090;49.770;18.760;2023-06-14T11:57:04;8.00;;;6.10;;
75512;SDS011;64090;49.770;18.760;2023-06-14T12:00:37;8.60;;;6.20;;
75512;SDS011;64090;49.770;18.760;2023-06-14T12:03:57;8.50;;;5.80;;
75512;SDS011;64090;49.770;18.760;2023-06-14T12:07:16;10.00;;;7.60;;
75512;SDS011;64090;49.770;18.760;2023-06-14T12:10:57;9.10;;;7.20;;
75512;SDS011;64090;49.770;18.760;2023-06-14T12:14:05;8.60;;;7.50;;
75512;SDS011;64090;49.770;18.760;2023-06-14T12:17:24;8.60;;;5.70;;
75512;SDS011;64090;49.770;18.760;2023-06-14T12:20:38;7.50;;;5.30;;
75512;SDS011;64090;49.770;18.760;2023-06-14T12:24:04;7.20;;;5.50;;
75512;SDS011;64090;49.770;18.760;2023-06-14T12:30:28;8.40;;;6.80;;
75512;SDS011;64090;49.770;18.760;2023-06-14T12:33:52;8.50;;;5.80;;
75512;SDS011;64090;49.770;18.760;2023-06-14T12:37:03;7.60;;;6.00;;
75512;SDS011;64090;49.770;18.760;2023-06-14T12:40:13;8.70;;;6.70;;
75512;SDS011;64090;49.770;18.760;2023-06-14T12:43:22;9.20;;;7.10;;
75512;SDS011;64090;49.770;18.760;2023-06-14T12:46:36;10.00;;;6.50;;
75512;SDS011;64090;49.770;18.760;2023-06-14T12:49:57;7.90;;;5.90;;
75512;SDS011;64090;49.770;18.760;2023-06-14T12:53:07;8.60;;;6.50;;
75512;SDS011;64090;49.770;18.760;2023-06-14T12:56:32;7.70;;;6.30;;
75512;SDS011;64090;49.770;18.760;2023-06-14T12:59:53;7.80;;;6.10;;
75512;SDS011;64090;49.770;18.760;2023-06-14T13:03:13;6.50;;;5.60;;
75512;SDS011;64090;49.770;18.760;2023-06-14T13:06:23;7.50;;;6.00;;
75512;SDS011;64090;49.770;18.760;2023-06-14T13:09:51;7.40;;;5.80;;
75512;SDS011;64090;49.770;18.760;2023-06-14T13:16:21;6.40;;;5.30;;
75512;SDS011;64090;49.770;18.760;2023-06-14T13:20:05;8.20;;;6.40;;
75512;SDS011;64090;49.770;18.760;2023-06-14T13:23:16;7.70;;;6.10;;
75512;SDS011;64090;49.770;18.760;2023-06-14T13:26:35;6.80;;;5.50;;
75512;SDS011;64090;49.770;18.760;2023-06-14T13:29:55;6.80;;;5.50;;
75512;SDS011;64090;49.770;18.760;2023-06-14T13:33:21;6.80;;;4.60;;
75512;SDS011;64090;49.770;18.760;2023-06-14T13:36:39;6.30;;;4.50;;
75512;SDS011;64090;49.770;18.760;2023-06-14T13:40:00;5.40;;;4.50;;
75512;SDS011;64090;49.770;18.760;2023-06-14T13:43:24;6.50;;;4.90;;
75512;SDS011;64090;49.770;18.760;2023-06-14T13:46:45;7.50;;;5.60;;
75512;SDS011;64090;49.770;18.760;2023-06-14T13:49:55;6.00;;;5.30;;
75512;SDS011;64090;49.770;18.760;2023-06-14T13:53:08;7.50;;;5.30;;
75512;SDS011;64090;49.770;18.760;2023-06-14T13:56:16;8.00;;;5.40;;
75512;SDS011;64090;49.770;18.760;2023-06-14T13:59:40;6.70;;;4.60;;
75512;SDS011;64090;49.770;18.760;2023-06-14T14:06:31;6.40;;;5.50;;
75512;SDS011;64090;49.770;18.760;2023-06-14T14:09:52;6.00;;;4.60;;
75512;SDS011;64090;49.770;18.760;2023-06-14T14:13:00;6.90;;;5.70;;
75512;SDS011;64090;49.770;18.760;2023-06-14T14:16:14;7.20;;;5.30;;
75512;SDS011;64090;49.770;18.760;2023-06-14T14:19:26;6.70;;;5.90;;
75512;SDS011;64090;49.770;18.760;2023-06-14T14:22:36;8.90;;;6.00;;
75512;SDS011;64090;49.770;18.760;2023-06-14T14:25:46;6.40;;;4.50;;
75512;SDS011;64090;49.770;18.760;2023-06-14T14:28:57;7.10;;;5.30;;
75512;SDS011;64090;49.770;18.760;2023-06-14T14:32:06;8.20;;;5.90;;
75512;SDS011;64090;49.770;18.760;2023-06-14T14:35:18;8.00;;;5.90;;
75512;SDS011;64090;49.770;18.760;2023-06-14T14:38:29;6.70;;;4.60;;
75512;SDS011;64090;49.770;18.760;2023-06-14T14:41:40;6.40;;;5.10;;
75512;SDS011;64090;49.770;18.760;2023-06-14T14:44:52;7.30;;;6.10;;
75512;SDS011;64090;49.770;18.760;2023-06-14T14:48:00;8.30;;;6.60;;
75512;SDS011;64090;49.770;18.760;2023-06-14T14:51:07;8.20;;;7.30;;
75512;SDS011;64090;49.770;18.760;2023-06-14T14:54:16;7.50;;;6.70;;
75512;SDS011;64090;49.770;18.760;2023-06-14T14:57:41;8.90;;;7.30;;
75512;SDS011;64090;49.770;18.760;2023-06-14T15:00:54;9.60;;;6.60;;
75512;SDS011;64090;49.770;18.760;2023-06-14T15:04:18;6.40;;;5.20;;
75512;SDS011;64090;49.770;18.760;2023-06-14T15:07:31;8.00;;;6.60;;
75512;SDS011;64090;49.770;18.760;2023-06-14T15:10:50;8.20;;;6.00;;
75512;SDS011;64090;49.770;18.760;2023-06-14T15:14:17;10.40;;;7.60;;
75512;SDS011;64090;49.770;18.760;2023-06-14T15:17:35;6.80;;;6.00;;
75512;SDS011;64090;49.770;18.760;2023-06-14T15:20:54;6.30;;;5.60;;
75512;SDS011;64090;49.770;18.760;2023-06-14T15:24:08;7.30;;;6.10;;
75512;SDS011;64090;49.770;18.760;2023-06-14T15:27:32;7.90;;;6.20;;
75512;SDS011;64090;49.770;18.760;2023-06-14T15:30:50;6.20;;;5.20;;
75512;SDS011;64090;49.770;18.760;2023-06-14T15:34:16;6.40;;;5.30;;
75512;SDS011;64090;49.770;18.760;2023-06-14T15:37:28;7.50;;;5.90;;
75512;SDS011;64090;49.770;18.760;2023-06-14T15:40:48;9.50;;;5.90;;
75512;SDS011;64090;49.770;18.760;2023-06-14T15:43:56;6.60;;;5.60;;
75512;SDS011;64090;49.770;18.760;2023-06-14T15:47:14;7.10;;;5.10;;
75512;SDS011;64090;49.770;18.760;2023-06-14T15:50:37;6.50;;;5.90;;
75512;SDS011;64090;49.770;18.760;2023-06-14T15:54:04;7.10;;;6.40;;
75512;SDS011;64090;49.770;18.760;2023-06-14T15:57:23;5.80;;;4.80;;
75512;SDS011;64090;49.770;18.760;2023-06-14T16:00:32;4.70;;;3.60;;
75512;SDS011;64090;49.770;18.760;2023-06-14T16:03:40;7.00;;;4.90;;
75512;SDS011;64090;49.770;18.760;2023-06-14T16:06:55;6.60;;;5.40;;
75512;SDS011;64090;49.770;18.760;2023-06-14T16:10:24;6.00;;;5.40;;
75512;SDS011;64090;49.770;18.760;2023-06-14T16:13:42;8.20;;;5.70;;
75512;SDS011;64090;49.770;18.760;2023-06-14T16:17:02;5.70;;;4.40;;
75512;SDS011;64090;49.770;18.760;2023-06-14T16:20:24;5.00;;;4.20;;
75512;SDS011;64090;49.770;18.760;2023-06-14T16:23:43;7.30;;;5.50;;
75512;SDS011;64090;49.770;18.760;2023-06-14T16:26:56;5.40;;;4.60;;
75512;SDS011;64090;49.770;18.760;2023-06-14T16:30:10;5.70;;;4.60;;
75512;SDS011;64090;49.770;18.760;2023-06-14T16:33:31;6.20;;;4.30;;
75512;SDS011;64090;49.770;18.760;2023-06-14T16:37:01;4.70;;;4.00;;
75512;SDS011;64090;49.770;18.760;2023-06-14T16:40:12;4.70;;;3.80;;
75512;SDS011;64090;49.770;18.760;2023-06-14T16:43:21;4.60;;;3.60;;
75512;SDS011;64090;49.770;18.760;2023-06-14T16:46:39;4.60;;;3.90;;
75512;SDS011;64090;49.770;18.760;2023-06-14T16:49:51;3.60;;;3.20;;
75512;SDS011;64090;49.770;18.760;2023-06-14T16:53:09;3.70;;;2.50;;
75512;SDS011;64090;49.770;18.760;2023-06-14T16:56:24;4.10;;;2.70;;
75512;SDS011;64090;49.770;18.760;2023-06-14T16:59:37;3.90;;;2.80;;
75512;SDS011;64090;49.770;18.760;2023-06-14T17:02:45;5.40;;;2.80;;
75512;SDS011;64090;49.770;18.760;2023-06-14T17:05:57;4.20;;;2.70;;
75512;SDS011;64090;49.770;18.760;2023-06-14T17:09:17;3.80;;;2.60;;
75512;SDS011;64090;49.770;18.760;2023-06-14T17:12:25;4.00;;;3.00;;
75512;SDS011;64090;49.770;18.760;2023-06-14T17:15:35;3.90;;;2.90;;
75512;SDS011;64090;49.770;18.760;2023-06-14T17:18:53;4.50;;;3.10;;
75512;SDS011;64090;49.770;18.760;2023-06-14T17:22:07;4.40;;;3.00;;
75512;SDS011;64090;49.770;18.760;2023-06-14T17:25:19;4.60;;;3.20;;
75512;SDS011;64090;49.770;18.760;2023-06-14T17:28:28;4.20;;;3.10;;
75512;SDS011;64090;49.770;18.760;2023-06-14T17:31:47;4.40;;;3.30;;
75512;SDS011;64090;49.770;18.760;2023-06-14T17:34:55;4.70;;;3.40;;
75512;SDS011;64090;49.770;18.760;2023-06-14T17:38:14;4.60;;;3.50;;
75512;SDS011;64090;49.770;18.760;2023-06-14T17:41:40;5.30;;;3.70;;
75512;SDS011;64090;49.770;18.760;2023-06-14T17:45:04;6.20;;;4.10;;
75512;SDS011;64090;49.770;18.760;2023-06-14T17:48:16;7.80;;;4.30;;
75512;SDS011;64090;49.770;18.760;2023-06-14T17:51:37;6.50;;;4.20;;
75512;SDS011;64090;49.770;18.760;2023-06-14T17:54:46;7.50;;;4.70;;
75512;SDS011;64090;49.770;18.760;2023-06-14T17:58:05;7.30;;;4.40;;
75512;SDS011;64090;49.770;18.760;2023-06-14T18:01:18;6.70;;;4.60;;
75512;SDS011;64090;49.770;18.760;2023-06-14T18:04:35;7.00;;;4.50;;
75512;SDS011;64090;49.770;18.760;2023-06-14T18:07:59;6.00;;;4.00;;
75512;SDS011;64090;49.770;18.760;2023-06-14T18:11:11;7.40;;;4.40;;
75512;SDS011;64090;49.770;18.760;2023-06-14T18:14:20;7.60;;;4.50;;
75512;SDS011;64090;49.770;18.760;2023-06-14T18:17:42;7.20;;;4.50;;
75512;SDS011;64090;49.770;18.760;2023-06-14T18:20:49;10.10;;;5.70;;
75512;SDS011;64090;49.770;18.760;2023-06-14T18:24:08;9.30;;;5.70;;
75512;SDS011;64090;49.770;18.760;2023-06-14T18:27:30;7.60;;;4.90;;
75512;SDS011;64090;49.770;18.760;2023-06-14T18:30:43;8.00;;;4.40;;
75512;SDS011;64090;49.770;18.760;2023-06-14T18:33:52;6.50;;;4.40;;
75512;SDS011;64090;49.770;18.760;2023-06-14T18:37:11;7.00;;;4.60;;
75512;SDS011;64090;49.770;18.760;2023-06-14T18:40:36;7.00;;;4.10;;
75512;SDS011;64090;49.770;18.760;2023-06-14T18:43:58;7.20;;;4.90;;
75512;SDS011;64090;49.770;18.760;2023-06-14T18:47:06;6.70;;;4.40;;
75512;SDS011;64090;49.770;18.760;2023-06-14T18:50:30;5.80;;;4.20;;
75512;SDS011;64090;49.770;18.760;2023-06-14T18:53:58;7.00;;;4.30;;
75512;SDS011;64090;49.770;18.760;2023-06-14T18:57:16;8.10;;;5.40;;
75512;SDS011;64090;49.770;18.760;2023-06-14T19:00:39;7.10;;;4.80;;
75512;SDS011;64090;49.770;18.760;2023-06-14T19:04:05;7.90;;;4.50;;
75512;SDS011;64090;49.770;18.760;2023-06-14T19:07:27;8.00;;;5.10;;
75512;SDS011;64090;49.770;18.760;2023-06-14T19:10:45;8.70;;;5.10;;
75512;SDS011;64090;49.770;18.760;2023-06-14T19:14:05;9.60;;;5.00;;
75512;SDS011;64090;49.770;18.760;2023-06-14T19:18:00;9.00;;;5.10;;
75512;SDS011;64090;49.770;18.760;2023-06-14T19:21:46;9.40;;;4.60;;
75512;SDS011;64090;49.770;18.760;2023-06-14T19:25:06;9.70;;;5.90;;
75512;SDS011;64090;49.770;18.760;2023-06-14T19:28:35;8.00;;;5.40;;
75512;SDS011;64090;49.770;18.760;2023-06-14T19:32:08;9.00;;;6.20;;
75512;SDS011;64090;49.770;18.760;2023-06-14T19:35:37;8.90;;;5.60;;
75512;SDS011;64090;49.770;18.760;2023-06-14T19:38:47;10.90;;;6.20;;
75512;SDS011;64090;49.770;18.760;2023-06-14T19:41:58;10.10;;;5.10;;
75512;SDS011;64090;49.770;18.760;2023-06-14T19:45:19;9.10;;;5.40;;
75512;SDS011;64090;49.770;18.760;2023-06-14T19:48:31;9.90;;;5.60;;
75512;SDS011;64090;49.770;18.760;2023-06-14T19:51:50;9.80;;;5.80;;
75512;SDS011;64090;49.770;18.760;2023-06-14T19:55:08;11.30;;;6.40;;
75512;SDS011;64090;49.770;18.760;2023-06-14T19:58:34;11.10;;;6.60;;
75512;SDS011;64090;49.770;18.760;2023-06-14T20:01:44;10.90;;;8.00;;
75512;SDS011;64090;49.770;18.760;2023-06-14T20:05:04;10.30;;;6.70;;